< < Back
Terminal Aerodrome Forecast


Current Version              Previous Versions:   1  2  3  4  5  6  7  8  9  

Terminal Aerodrome Forecast

041
FTUS42 KMLB 300530
TAFDAB
TAF
KDAB 300530Z 3006/0106 21003KT P6SM FEW025 SCT100 SCT250
     FM301300 21005KT P6SM SCT035 SCT050
     FM301800 11007KT P6SM VCTS SCT035CB BKN050
      TEMPO 3019/3022 3SM TSRA BKN030CB
     FM010000 18004KT P6SM VCSH SCT030 BKN080 BKN250=

Latest METAR

818
SAUS80 KWBC 301500 RRB
MTRDAB
METAR KDAB 301453Z 00000KT 10SM BKN025 BKN250 29/24 A3003 RMK AO2 SLP169
T02940239 51004


USA.gov is the U.S. government's official web portal to all federal, state and local government web resources and services.